sensor_id;sensor_type;location;lat;lon;timestamp;P1;durP1;ratioP1;P2;durP2;ratioP2
13463;SDS011;6804;48.774;9.174;2022-07-29T00:00:48;4.50;;;4.10;;
13463;SDS011;6804;48.774;9.174;2022-07-29T00:03:16;4.93;;;4.43;;
13463;SDS011;6804;48.774;9.174;2022-07-29T00:05:49;6.70;;;4.60;;
13463;SDS011;6804;48.774;9.174;2022-07-29T00:08:20;4.93;;;4.30;;
13463;SDS011;6804;48.774;9.174;2022-07-29T00:10:50;5.03;;;4.60;;
13463;SDS011;6804;48.774;9.174;2022-07-29T00:13:17;5.57;;;3.90;;
13463;SDS011;6804;48.774;9.174;2022-07-29T00:15:47;4.97;;;4.00;;
13463;SDS011;6804;48.774;9.174;2022-07-29T00:18:20;4.63;;;4.23;;
13463;SDS011;6804;48.774;9.174;2022-07-29T00:20:49;4.60;;;4.07;;
13463;SDS011;6804;48.774;9.174;2022-07-29T00:23:16;5.93;;;4.53;;
13463;SDS011;6804;48.774;9.174;2022-07-29T00:25:48;6.07;;;5.00;;
13463;SDS011;6804;48.774;9.174;2022-07-29T00:28:16;4.73;;;4.23;;
13463;SDS011;6804;48.774;9.174;2022-07-29T00:30:45;4.87;;;4.47;;
13463;SDS011;6804;48.774;9.174;2022-07-29T00:33:16;4.93;;;4.27;;
13463;SDS011;6804;48.774;9.174;2022-07-29T00:35:45;4.70;;;4.30;;
13463;SDS011;6804;48.774;9.174;2022-07-29T00:38:14;4.80;;;4.40;;
13463;SDS011;6804;48.774;9.174;2022-07-29T00:40:43;4.27;;;3.87;;
13463;SDS011;6804;48.774;9.174;2022-07-29T00:43:14;5.47;;;4.40;;
13463;SDS011;6804;48.774;9.174;2022-07-29T00:45:41;3.97;;;3.67;;
13463;SDS011;6804;48.774;9.174;2022-07-29T00:48:09;5.17;;;4.50;;
13463;SDS011;6804;48.774;9.174;2022-07-29T00:50:36;4.80;;;4.30;;
13463;SDS011;6804;48.774;9.174;2022-07-29T00:53:05;4.70;;;4.30;;
13463;SDS011;6804;48.774;9.174;2022-07-29T00:55:43;5.03;;;4.60;;
13463;SDS011;6804;48.774;9.174;2022-07-29T00:58:11;4.37;;;4.07;;
13463;SDS011;6804;48.774;9.174;2022-07-29T01:00:39;5.07;;;3.97;;
13463;SDS011;6804;48.774;9.174;2022-07-29T01:03:07;4.40;;;4.00;;
13463;SDS011;6804;48.774;9.174;2022-07-29T01:05:34;5.47;;;4.23;;
13463;SDS011;6804;48.774;9.174;2022-07-29T01:08:02;7.50;;;4.20;;
13463;SDS011;6804;48.774;9.174;2022-07-29T01:10:31;4.07;;;3.77;;
13463;SDS011;6804;48.774;9.174;2022-07-29T01:13:04;5.90;;;3.80;;
13463;SDS011;6804;48.774;9.174;2022-07-29T01:15:34;4.20;;;3.80;;
13463;SDS011;6804;48.774;9.174;2022-07-29T01:18:13;3.83;;;3.53;;
13463;SDS011;6804;48.774;9.174;2022-07-29T01:20:55;4.30;;;3.90;;
13463;SDS011;6804;48.774;9.174;2022-07-29T01:23:48;5.27;;;3.93;;
13463;SDS011;6804;48.774;9.174;2022-07-29T01:26:31;3.73;;;3.40;;
13463;SDS011;6804;48.774;9.174;2022-07-29T01:29:13;4.33;;;3.93;;
13463;SDS011;6804;48.774;9.174;2022-07-29T01:31:48;4.20;;;3.80;;
13463;SDS011;6804;48.774;9.174;2022-07-29T01:34:35;3.77;;;3.47;;
13463;SDS011;6804;48.774;9.174;2022-07-29T01:37:10;4.33;;;3.80;;
13463;SDS011;6804;48.774;9.174;2022-07-29T01:39:44;3.70;;;3.30;;
13463;SDS011;6804;48.774;9.174;2022-07-29T01:42:14;3.73;;;3.40;;
13463;SDS011;6804;48.774;9.174;2022-07-29T01:44:50;4.10;;;3.70;;
13463;SDS011;6804;48.774;9.174;2022-07-29T01:47:23;4.87;;;3.70;;
13463;SDS011;6804;48.774;9.174;2022-07-29T01:49:58;4.40;;;3.80;;
13463;SDS011;6804;48.774;9.174;2022-07-29T01:52:29;3.60;;;3.30;;
13463;SDS011;6804;48.774;9.174;2022-07-29T01:55:06;4.07;;;3.67;;
13463;SDS011;6804;48.774;9.174;2022-07-29T01:57:40;3.87;;;3.20;;
13463;SDS011;6804;48.774;9.174;2022-07-29T02:00:14;4.63;;;3.27;;
13463;SDS011;6804;48.774;9.174;2022-07-29T02:02:42;4.93;;;3.40;;
13463;SDS011;6804;48.774;9.174;2022-07-29T02:05:12;3.50;;;3.20;;
13463;SDS011;6804;48.774;9.174;2022-07-29T02:07:44;3.70;;;3.40;;
13463;SDS011;6804;48.774;9.174;2022-07-29T02:10:14;3.80;;;3.50;;
13463;SDS011;6804;48.774;9.174;2022-07-29T02:12:49;3.37;;;3.07;;
13463;SDS011;6804;48.774;9.174;2022-07-29T02:15:19;3.60;;;3.30;;
13463;SDS011;6804;48.774;9.174;2022-07-29T02:17:49;3.77;;;3.47;;
13463;SDS011;6804;48.774;9.174;2022-07-29T02:20:29;3.37;;;3.07;;
13463;SDS011;6804;48.774;9.174;2022-07-29T02:23:00;3.60;;;3.30;;
13463;SDS011;6804;48.774;9.174;2022-07-29T02:25:30;3.60;;;3.30;;
13463;SDS011;6804;48.774;9.174;2022-07-29T02:28:01;4.23;;;3.30;;
13463;SDS011;6804;48.774;9.174;2022-07-29T02:30:34;3.60;;;3.30;;
13463;SDS011;6804;48.774;9.174;2022-07-29T02:33:08;3.73;;;3.33;;
13463;SDS011;6804;48.774;9.174;2022-07-29T02:35:42;4.10;;;3.60;;
13463;SDS011;6804;48.774;9.174;2022-07-29T02:38:14;3.73;;;3.33;;
13463;SDS011;6804;48.774;9.174;2022-07-29T02:41:01;4.43;;;3.33;;
13463;SDS011;6804;48.774;9.174;2022-07-29T02:43:33;3.63;;;3.33;;
13463;SDS011;6804;48.774;9.174;2022-07-29T02:46:03;3.60;;;3.30;;
13463;SDS011;6804;48.774;9.174;2022-07-29T02:48:37;3.30;;;3.00;;
13463;SDS011;6804;48.774;9.174;2022-07-29T02:51:12;3.00;;;2.70;;
13463;SDS011;6804;48.774;9.174;2022-07-29T02:53:46;3.70;;;3.13;;
13463;SDS011;6804;48.774;9.174;2022-07-29T02:56:23;3.60;;;2.83;;
13463;SDS011;6804;48.774;9.174;2022-07-29T02:58:54;3.30;;;3.00;;
13463;SDS011;6804;48.774;9.174;2022-07-29T03:01:25;4.03;;;2.70;;
13463;SDS011;6804;48.774;9.174;2022-07-29T03:03:55;3.10;;;2.80;;
13463;SDS011;6804;48.774;9.174;2022-07-29T03:06:27;3.87;;;3.40;;
13463;SDS011;6804;48.774;9.174;2022-07-29T03:09:05;3.33;;;3.03;;
13463;SDS011;6804;48.774;9.174;2022-07-29T03:11:34;2.83;;;2.63;;
13463;SDS011;6804;48.774;9.174;2022-07-29T03:14:02;4.10;;;2.90;;
13463;SDS011;6804;48.774;9.174;2022-07-29T03:16:33;2.90;;;2.70;;
13463;SDS011;6804;48.774;9.174;2022-07-29T03:19:02;3.50;;;3.00;;
13463;SDS011;6804;48.774;9.174;2022-07-29T03:21:30;3.10;;;2.90;;
13463;SDS011;6804;48.774;9.174;2022-07-29T03:24:00;2.67;;;2.47;;
13463;SDS011;6804;48.774;9.174;2022-07-29T03:26:28;4.73;;;3.33;;
13463;SDS011;6804;48.774;9.174;2022-07-29T03:28:55;3.73;;;2.97;;
13463;SDS011;6804;48.774;9.174;2022-07-29T03:31:22;3.27;;;2.97;;
13463;SDS011;6804;48.774;9.174;2022-07-29T03:33:53;3.20;;;2.90;;
13463;SDS011;6804;48.774;9.174;2022-07-29T03:36:26;3.50;;;2.97;;
13463;SDS011;6804;48.774;9.174;2022-07-29T03:38:53;3.60;;;3.10;;
13463;SDS011;6804;48.774;9.174;2022-07-29T03:41:22;3.83;;;3.17;;
13463;SDS011;6804;48.774;9.174;2022-07-29T03:43:51;4.77;;;3.30;;
13463;SDS011;6804;48.774;9.174;2022-07-29T03:46:20;3.43;;;3.10;;
13463;SDS011;6804;48.774;9.174;2022-07-29T03:48:48;3.50;;;3.20;;
13463;SDS011;6804;48.774;9.174;2022-07-29T03:51:25;5.43;;;3.00;;
13463;SDS011;6804;48.774;9.174;2022-07-29T03:53:53;4.03;;;3.30;;
13463;SDS011;6804;48.774;9.174;2022-07-29T03:56:21;3.37;;;3.07;;
13463;SDS011;6804;48.774;9.174;2022-07-29T03:58:58;4.13;;;3.13;;
13463;SDS011;6804;48.774;9.174;2022-07-29T04:01:26;3.43;;;2.80;;
13463;SDS011;6804;48.774;9.174;2022-07-29T04:03:56;3.47;;;3.13;;
13463;SDS011;6804;48.774;9.174;2022-07-29T04:06:23;4.33;;;3.60;;
13463;SDS011;6804;48.774;9.174;2022-07-29T04:08:51;3.23;;;2.93;;
13463;SDS011;6804;48.774;9.174;2022-07-29T04:11:24;3.70;;;2.83;;
13463;SDS011;6804;48.774;9.174;2022-07-29T04:13:52;2.90;;;2.70;;
13463;SDS011;6804;48.774;9.174;2022-07-29T04:16:22;2.90;;;2.70;;
13463;SDS011;6804;48.774;9.174;2022-07-29T04:18:49;2.90;;;2.70;;
13463;SDS011;6804;48.774;9.174;2022-07-29T04:21:18;4.97;;;3.07;;
13463;SDS011;6804;48.774;9.174;2022-07-29T04:23:48;4.07;;;3.07;;
13463;SDS011;6804;48.774;9.174;2022-07-29T04:26:15;2.80;;;2.60;;
13463;SDS011;6804;48.774;9.174;2022-07-29T04:28:43;3.13;;;2.93;;
13463;SDS011;6804;48.774;9.174;2022-07-29T04:31:13;3.10;;;2.80;;
13463;SDS011;6804;48.774;9.174;2022-07-29T04:33:40;3.30;;;2.70;;
13463;SDS011;6804;48.774;9.174;2022-07-29T04:36:07;3.33;;;2.63;;
13463;SDS011;6804;48.774;9.174;2022-07-29T04:38:37;3.37;;;3.07;;
13463;SDS011;6804;48.774;9.174;2022-07-29T04:41:05;3.33;;;2.93;;
13463;SDS011;6804;48.774;9.174;2022-07-29T04:43:33;3.17;;;2.87;;
13463;SDS011;6804;48.774;9.174;2022-07-29T04:46:03;5.03;;;3.23;;
13463;SDS011;6804;48.774;9.174;2022-07-29T04:48:35;3.53;;;3.20;;
13463;SDS011;6804;48.774;9.174;2022-07-29T04:51:05;3.30;;;3.00;;
13463;SDS011;6804;48.774;9.174;2022-07-29T04:53:35;3.50;;;3.20;;
13463;SDS011;6804;48.774;9.174;2022-07-29T04:56:04;3.73;;;2.97;;
13463;SDS011;6804;48.774;9.174;2022-07-29T04:58:33;4.70;;;3.23;;
13463;SDS011;6804;48.774;9.174;2022-07-29T05:01:01;2.50;;;2.30;;
13463;SDS011;6804;48.774;9.174;2022-07-29T05:03:29;5.17;;;3.00;;
13463;SDS011;6804;48.774;9.174;2022-07-29T05:05:56;2.93;;;2.57;;
13463;SDS011;6804;48.774;9.174;2022-07-29T05:08:30;2.60;;;2.40;;
13463;SDS011;6804;48.774;9.174;2022-07-29T05:10:57;2.30;;;2.10;;
13463;SDS011;6804;48.774;9.174;2022-07-29T05:13:28;2.97;;;2.37;;
13463;SDS011;6804;48.774;9.174;2022-07-29T05:15:56;2.63;;;2.40;;
13463;SDS011;6804;48.774;9.174;2022-07-29T05:18:24;3.00;;;2.43;;
13463;SDS011;6804;48.774;9.174;2022-07-29T05:20:51;2.97;;;2.20;;
13463;SDS011;6804;48.774;9.174;2022-07-29T05:23:21;3.27;;;2.40;;
13463;SDS011;6804;48.774;9.174;2022-07-29T05:25:48;2.90;;;2.40;;
13463;SDS011;6804;48.774;9.174;2022-07-29T05:28:16;3.65;;;2.00;;
13463;SDS011;6804;48.774;9.174;2022-07-29T05:30:56;3.10;;;2.10;;
13463;SDS011;6804;48.774;9.174;2022-07-29T05:33:29;3.50;;;2.22;;
13463;SDS011;6804;48.774;9.174;2022-07-29T05:35:56;2.15;;;2.00;;
13463;SDS011;6804;48.774;9.174;2022-07-29T05:38:24;2.45;;;2.08;;
13463;SDS011;6804;48.774;9.174;2022-07-29T05:40:57;2.73;;;2.00;;
13463;SDS011;6804;48.774;9.174;2022-07-29T05:43:24;2.55;;;2.35;;
13463;SDS011;6804;48.774;9.174;2022-07-29T05:46:02;2.80;;;2.00;;
13463;SDS011;6804;48.774;9.174;2022-07-29T05:48:29;2.50;;;2.25;;
13463;SDS011;6804;48.774;9.174;2022-07-29T05:51:00;3.20;;;2.22;;
13463;SDS011;6804;48.774;9.174;2022-07-29T05:53:28;2.20;;;2.00;;
13463;SDS011;6804;48.774;9.174;2022-07-29T05:55:56;1.85;;;1.75;;
13463;SDS011;6804;48.774;9.174;2022-07-29T05:58:26;2.58;;;1.92;;
13463;SDS011;6804;48.774;9.174;2022-07-29T06:00:55;3.58;;;2.35;;
13463;SDS011;6804;48.774;9.174;2022-07-29T06:03:28;2.67;;;2.28;;
13463;SDS011;6804;48.774;9.174;2022-07-29T06:05:56;2.67;;;2.10;;
13463;SDS011;6804;48.774;9.174;2022-07-29T06:08:24;2.70;;;2.20;;
13463;SDS011;6804;48.774;9.174;2022-07-29T06:10:52;2.75;;;2.20;;
13463;SDS011;6804;48.774;9.174;2022-07-29T06:13:22;2.25;;;2.05;;
13463;SDS011;6804;48.774;9.174;2022-07-29T06:15:49;2.42;;;2.22;;
13463;SDS011;6804;48.774;9.174;2022-07-29T06:18:18;2.70;;;2.28;;
13463;SDS011;6804;48.774;9.174;2022-07-29T06:20:50;3.78;;;2.22;;
13463;SDS011;6804;48.774;9.174;2022-07-29T06:23:20;2.53;;;2.28;;
13463;SDS011;6804;48.774;9.174;2022-07-29T06:25:48;3.88;;;2.40;;
13463;SDS011;6804;48.774;9.174;2022-07-29T06:28:18;2.58;;;2.38;;
13463;SDS011;6804;48.774;9.174;2022-07-29T06:30:52;3.25;;;2.30;;
13463;SDS011;6804;48.774;9.174;2022-07-29T06:33:19;3.15;;;2.40;;
13463;SDS011;6804;48.774;9.174;2022-07-29T06:35:47;2.80;;;2.30;;
13463;SDS011;6804;48.774;9.174;2022-07-29T06:38:16;3.00;;;2.30;;
13463;SDS011;6804;48.774;9.174;2022-07-29T06:40:49;2.97;;;2.78;;
13463;SDS011;6804;48.774;9.174;2022-07-29T06:43:31;2.53;;;2.33;;
13463;SDS011;6804;48.774;9.174;2022-07-29T06:46:01;3.00;;;2.67;;
13463;SDS011;6804;48.774;9.174;2022-07-29T06:48:29;2.80;;;2.60;;
13463;SDS011;6804;48.774;9.174;2022-07-29T06:50:58;5.47;;;3.45;;
13463;SDS011;6804;48.774;9.174;2022-07-29T06:53:34;4.78;;;2.90;;
13463;SDS011;6804;48.774;9.174;2022-07-29T06:56:02;3.83;;;2.70;;
13463;SDS011;6804;48.774;9.174;2022-07-29T06:58:30;2.75;;;2.55;;
13463;SDS011;6804;48.774;9.174;2022-07-29T07:00:58;2.83;;;2.60;;
13463;SDS011;6804;48.774;9.174;2022-07-29T07:03:28;3.03;;;2.70;;
13463;SDS011;6804;48.774;9.174;2022-07-29T07:05:58;4.25;;;2.47;;
13463;SDS011;6804;48.774;9.174;2022-07-29T07:08:28;4.85;;;3.42;;
13463;SDS011;6804;48.774;9.174;2022-07-29T07:10:58;4.22;;;2.67;;
13463;SDS011;6804;48.774;9.174;2022-07-29T07:13:29;3.50;;;2.90;;
13463;SDS011;6804;48.774;9.174;2022-07-29T07:16:00;2.63;;;2.42;;
13463;SDS011;6804;48.774;9.174;2022-07-29T07:18:30;3.58;;;3.10;;
13463;SDS011;6804;48.774;9.174;2022-07-29T07:21:01;3.72;;;2.88;;
13463;SDS011;6804;48.774;9.174;2022-07-29T07:23:33;4.20;;;2.80;;
13463;SDS011;6804;48.774;9.174;2022-07-29T07:26:02;3.90;;;2.70;;
13463;SDS011;6804;48.774;9.174;2022-07-29T07:28:31;3.30;;;2.80;;
13463;SDS011;6804;48.774;9.174;2022-07-29T07:31:04;3.42;;;2.45;;
13463;SDS011;6804;48.774;9.174;2022-07-29T07:33:32;5.07;;;2.78;;
13463;SDS011;6804;48.774;9.174;2022-07-29T07:35:59;3.60;;;2.80;;
13463;SDS011;6804;48.774;9.174;2022-07-29T07:38:27;3.38;;;2.78;;
13463;SDS011;6804;48.774;9.174;2022-07-29T07:40:58;3.65;;;2.90;;
13463;SDS011;6804;48.774;9.174;2022-07-29T07:43:28;4.95;;;3.20;;
13463;SDS011;6804;48.774;9.174;2022-07-29T07:45:56;4.10;;;2.75;;
13463;SDS011;6804;48.774;9.174;2022-07-29T07:48:24;4.53;;;2.78;;
13463;SDS011;6804;48.774;9.174;2022-07-29T07:50:51;3.13;;;2.78;;
13463;SDS011;6804;48.774;9.174;2022-07-29T07:53:22;4.75;;;3.13;;
13463;SDS011;6804;48.774;9.174;2022-07-29T07:55:50;4.53;;;2.90;;
13463;SDS011;6804;48.774;9.174;2022-07-29T07:58:20;4.38;;;3.15;;
13463;SDS011;6804;48.774;9.174;2022-07-29T08:00:52;8.27;;;3.20;;
13463;SDS011;6804;48.774;9.174;2022-07-29T08:03:20;7.15;;;3.72;;
13463;SDS011;6804;48.774;9.174;2022-07-29T08:05:48;8.88;;;3.60;;
13463;SDS011;6804;48.774;9.174;2022-07-29T08:08:17;4.97;;;3.08;;
13463;SDS011;6804;48.774;9.174;2022-07-29T08:10:55;4.57;;;3.20;;
13463;SDS011;6804;48.774;9.174;2022-07-29T08:13:23;3.45;;;3.10;;
13463;SDS011;6804;48.774;9.174;2022-07-29T08:15:54;3.88;;;2.75;;
13463;SDS011;6804;48.774;9.174;2022-07-29T08:18:26;3.33;;;3.13;;
13463;SDS011;6804;48.774;9.174;2022-07-29T08:21:00;3.10;;;2.80;;
13463;SDS011;6804;48.774;9.174;2022-07-29T08:23:29;3.53;;;3.20;;
13463;SDS011;6804;48.774;9.174;2022-07-29T08:26:06;3.92;;;3.05;;
13463;SDS011;6804;48.774;9.174;2022-07-29T08:28:36;4.05;;;3.10;;
13463;SDS011;6804;48.774;9.174;2022-07-29T08:31:06;3.55;;;3.25;;
13463;SDS011;6804;48.774;9.174;2022-07-29T08:33:36;6.57;;;3.50;;
13463;SDS011;6804;48.774;9.174;2022-07-29T08:36:04;3.95;;;3.13;;
13463;SDS011;6804;48.774;9.174;2022-07-29T08:38:35;5.65;;;3.20;;
13463;SDS011;6804;48.774;9.174;2022-07-29T08:41:06;9.48;;;4.47;;
13463;SDS011;6804;48.774;9.174;2022-07-29T08:43:36;5.00;;;3.15;;
13463;SDS011;6804;48.774;9.174;2022-07-29T08:46:08;4.10;;;2.80;;
13463;SDS011;6804;48.774;9.174;2022-07-29T08:48:37;4.22;;;3.45;;
13463;SDS011;6804;48.774;9.174;2022-07-29T08:51:13;6.57;;;3.28;;
13463;SDS011;6804;48.774;9.174;2022-07-29T08:53:44;4.50;;;3.30;;
13463;SDS011;6804;48.774;9.174;2022-07-29T08:56:17;5.15;;;3.28;;
13463;SDS011;6804;48.774;9.174;2022-07-29T08:58:46;6.03;;;3.70;;
13463;SDS011;6804;48.774;9.174;2022-07-29T09:01:17;8.73;;;4.30;;
13463;SDS011;6804;48.774;9.174;2022-07-29T09:03:49;4.68;;;3.33;;
13463;SDS011;6804;48.774;9.174;2022-07-29T09:06:23;3.78;;;3.22;;
13463;SDS011;6804;48.774;9.174;2022-07-29T09:08:53;4.35;;;2.97;;
13463;SDS011;6804;48.774;9.174;2022-07-29T09:11:25;4.15;;;3.50;;
13463;SDS011;6804;48.774;9.174;2022-07-29T09:13:53;4.00;;;3.08;;
13463;SDS011;6804;48.774;9.174;2022-07-29T09:16:27;5.15;;;3.40;;
13463;SDS011;6804;48.774;9.174;2022-07-29T09:19:19;15.02;;;5.15;;
13463;SDS011;6804;48.774;9.174;2022-07-29T09:21:53;5.82;;;3.90;;
13463;SDS011;6804;48.774;9.174;2022-07-29T09:24:27;4.93;;;4.10;;
13463;SDS011;6804;48.774;9.174;2022-07-29T09:27:09;5.65;;;3.80;;
13463;SDS011;6804;48.774;9.174;2022-07-29T09:29:44;6.20;;;3.58;;
13463;SDS011;6804;48.774;9.174;2022-07-29T09:32:14;5.13;;;3.72;;
13463;SDS011;6804;48.774;9.174;2022-07-29T09:34:42;4.88;;;3.70;;
13463;SDS011;6804;48.774;9.174;2022-07-29T09:37:11;8.15;;;5.22;;
13463;SDS011;6804;48.774;9.174;2022-07-29T09:39:52;6.13;;;4.30;;
13463;SDS011;6804;48.774;9.174;2022-07-29T09:42:27;6.28;;;5.28;;
13463;SDS011;6804;48.774;9.174;2022-07-29T09:44:57;4.13;;;3.63;;
13463;SDS011;6804;48.774;9.174;2022-07-29T09:47:40;4.15;;;3.50;;
13463;SDS011;6804;48.774;9.174;2022-07-29T09:50:17;6.00;;;3.28;;
13463;SDS011;6804;48.774;9.174;2022-07-29T09:52:49;4.13;;;3.60;;
13463;SDS011;6804;48.774;9.174;2022-07-29T09:55:18;3.60;;;3.28;;
13463;SDS011;6804;48.774;9.174;2022-07-29T09:57:46;7.30;;;4.10;;
13463;SDS011;6804;48.774;9.174;2022-07-29T10:00:17;3.53;;;3.22;;
13463;SDS011;6804;48.774;9.174;2022-07-29T10:02:49;6.75;;;3.65;;
13463;SDS011;6804;48.774;9.174;2022-07-29T10:05:19;4.18;;;3.78;;
13463;SDS011;6804;48.774;9.174;2022-07-29T10:07:48;4.45;;;3.53;;
13463;SDS011;6804;48.774;9.174;2022-07-29T10:10:21;4.65;;;3.25;;
13463;SDS011;6804;48.774;9.174;2022-07-29T10:12:58;5.22;;;3.70;;
13463;SDS011;6804;48.774;9.174;2022-07-29T10:15:31;5.55;;;3.90;;
13463;SDS011;6804;48.774;9.174;2022-07-29T10:18:08;4.35;;;3.95;;
13463;SDS011;6804;48.774;9.174;2022-07-29T10:20:37;5.65;;;3.53;;
13463;SDS011;6804;48.774;9.174;2022-07-29T10:23:05;6.53;;;4.38;;
13463;SDS011;6804;48.774;9.174;2022-07-29T10:25:33;6.13;;;4.00;;
13463;SDS011;6804;48.774;9.174;2022-07-29T10:28:01;4.00;;;3.60;;
13463;SDS011;6804;48.774;9.174;2022-07-29T10:30:29;5.10;;;4.03;;
13463;SDS011;6804;48.774;9.174;2022-07-29T10:36:02;6.85;;;3.92;;
13463;SDS011;6804;48.774;9.174;2022-07-29T10:38:47;4.05;;;3.50;;
13463;SDS011;6804;48.774;9.174;2022-07-29T10:44:24;5.32;;;4.68;;
13463;SDS011;6804;48.774;9.174;2022-07-29T10:46:55;4.88;;;4.40;;
13463;SDS011;6804;48.774;9.174;2022-07-29T10:49:25;5.10;;;4.18;;
13463;SDS011;6804;48.774;9.174;2022-07-29T10:51:56;4.53;;;4.13;;
13463;SDS011;6804;48.774;9.174;2022-07-29T10:54:42;4.40;;;4.00;;
13463;SDS011;6804;48.774;9.174;2022-07-29T10:57:22;6.00;;;4.68;;
13463;SDS011;6804;48.774;9.174;2022-07-29T11:02:56;12.32;;;6.38;;
13463;SDS011;6804;48.774;9.174;2022-07-29T11:05:32;9.23;;;5.60;;
13463;SDS011;6804;48.774;9.174;2022-07-29T11:08:24;10.95;;;5.75;;
13463;SDS011;6804;48.774;9.174;2022-07-29T11:14:06;11.02;;;7.05;;
13463;SDS011;6804;48.774;9.174;2022-07-29T11:19:29;9.27;;;6.13;;
13463;SDS011;6804;48.774;9.174;2022-07-29T11:21:58;7.45;;;5.97;;
13463;SDS011;6804;48.774;9.174;2022-07-29T11:24:26;11.32;;;6.38;;
13463;SDS011;6804;48.774;9.174;2022-07-29T11:27:09;11.63;;;6.95;;
13463;SDS011;6804;48.774;9.174;2022-07-29T11:29:50;6.97;;;6.05;;
13463;SDS011;6804;48.774;9.174;2022-07-29T11:32:19;8.88;;;6.05;;
13463;SDS011;6804;48.774;9.174;2022-07-29T11:34:49;7.10;;;6.10;;
13463;SDS011;6804;48.774;9.174;2022-07-29T11:37:38;7.03;;;6.30;;
13463;SDS011;6804;48.774;9.174;2022-07-29T11:40:12;6.05;;;5.55;;
13463;SDS011;6804;48.774;9.174;2022-07-29T11:42:46;8.23;;;6.40;;
13463;SDS011;6804;48.774;9.174;2022-07-29T11:45:24;6.50;;;5.90;;
13463;SDS011;6804;48.774;9.174;2022-07-29T11:47:58;7.68;;;5.88;;
13463;SDS011;6804;48.774;9.174;2022-07-29T11:50:28;8.10;;;6.85;;
13463;SDS011;6804;48.774;9.174;2022-07-29T11:53:02;8.23;;;6.57;;
13463;SDS011;6804;48.774;9.174;2022-07-29T11:55:36;6.18;;;5.43;;
13463;SDS011;6804;48.774;9.174;2022-07-29T11:58:07;7.22;;;5.90;;
13463;SDS011;6804;48.774;9.174;2022-07-29T12:00:35;9.18;;;6.60;;
13463;SDS011;6804;48.774;9.174;2022-07-29T12:03:05;7.65;;;5.88;;
13463;SDS011;6804;48.774;9.174;2022-07-29T12:05:38;7.00;;;5.70;;
13463;SDS011;6804;48.774;9.174;2022-07-29T12:08:12;7.45;;;5.97;;
13463;SDS011;6804;48.774;9.174;2022-07-29T12:10:45;6.68;;;5.10;;
13463;SDS011;6804;48.774;9.174;2022-07-29T12:13:15;6.53;;;4.70;;
13463;SDS011;6804;48.774;9.174;2022-07-29T12:15:51;5.88;;;4.90;;
13463;SDS011;6804;48.774;9.174;2022-07-29T12:18:19;5.85;;;4.50;;
13463;SDS011;6804;48.774;9.174;2022-07-29T12:20:47;4.60;;;3.70;;
13463;SDS011;6804;48.774;9.174;2022-07-29T12:23:33;4.93;;;3.90;;
13463;SDS011;6804;48.774;9.174;2022-07-29T12:26:04;4.68;;;3.75;;
13463;SDS011;6804;48.774;9.174;2022-07-29T12:28:36;4.78;;;3.78;;
13463;SDS011;6804;48.774;9.174;2022-07-29T12:31:04;5.20;;;3.95;;
13463;SDS011;6804;48.774;9.174;2022-07-29T12:33:33;4.53;;;3.47;;
13463;SDS011;6804;48.774;9.174;2022-07-29T12:36:01;3.67;;;3.38;;
13463;SDS011;6804;48.774;9.174;2022-07-29T12:38:29;3.95;;;3.58;;
13463;SDS011;6804;48.774;9.174;2022-07-29T12:40:58;4.45;;;4.05;;
13463;SDS011;6804;48.774;9.174;2022-07-29T12:43:27;3.78;;;3.47;;
13463;SDS011;6804;48.774;9.174;2022-07-29T12:45:55;4.88;;;3.67;;
13463;SDS011;6804;48.774;9.174;2022-07-29T12:48:33;4.18;;;3.53;;
13463;SDS011;6804;48.774;9.174;2022-07-29T12:51:02;4.68;;;3.45;;
13463;SDS011;6804;48.774;9.174;2022-07-29T12:53:31;3.90;;;3.50;;
13463;SDS011;6804;48.774;9.174;2022-07-29T12:56:01;5.63;;;3.63;;
13463;SDS011;6804;48.774;9.174;2022-07-29T12:58:33;4.75;;;3.63;;
13463;SDS011;6804;48.774;9.174;2022-07-29T13:01:05;6.13;;;4.47;;
13463;SDS011;6804;48.774;9.174;2022-07-29T13:03:43;4.90;;;4.22;;
13463;SDS011;6804;48.774;9.174;2022-07-29T13:06:31;5.28;;;3.60;;
13463;SDS011;6804;48.774;9.174;2022-07-29T13:09:15;7.60;;;5.28;;
13463;SDS011;6804;48.774;9.174;2022-07-29T13:11:49;4.47;;;4.07;;
13463;SDS011;6804;48.774;9.174;2022-07-29T13:14:29;4.53;;;3.75;;
13463;SDS011;6804;48.774;9.174;2022-07-29T13:17:02;7.32;;;5.05;;
13463;SDS011;6804;48.774;9.174;2022-07-29T13:19:35;6.55;;;5.15;;
13463;SDS011;6804;48.774;9.174;2022-07-29T13:22:05;8.82;;;4.72;;
13463;SDS011;6804;48.774;9.174;2022-07-29T13:24:33;5.30;;;4.80;;
13463;SDS011;6804;48.774;9.174;2022-07-29T13:27:05;5.43;;;4.93;;
13463;SDS011;6804;48.774;9.174;2022-07-29T13:29:33;8.35;;;5.30;;
13463;SDS011;6804;48.774;9.174;2022-07-29T13:32:05;7.97;;;5.28;;
13463;SDS011;6804;48.774;9.174;2022-07-29T13:34:32;5.05;;;4.18;;
13463;SDS011;6804;48.774;9.174;2022-07-29T13:37:03;6.65;;;5.10;;
13463;SDS011;6804;48.774;9.174;2022-07-29T13:39:30;6.95;;;5.50;;
13463;SDS011;6804;48.774;9.174;2022-07-29T13:42:00;5.00;;;4.55;;
13463;SDS011;6804;48.774;9.174;2022-07-29T13:44:29;6.57;;;4.68;;
13463;SDS011;6804;48.774;9.174;2022-07-29T13:47:01;5.50;;;4.30;;
13463;SDS011;6804;48.774;9.174;2022-07-29T13:49:32;6.43;;;4.83;;
13463;SDS011;6804;48.774;9.174;2022-07-29T13:52:00;7.05;;;5.88;;
13463;SDS011;6804;48.774;9.174;2022-07-29T13:54:32;7.22;;;5.85;;
13463;SDS011;6804;48.774;9.174;2022-07-29T13:57:02;7.33;;;5.77;;
13463;SDS011;6804;48.774;9.174;2022-07-29T13:59:32;6.25;;;5.57;;
13463;SDS011;6804;48.774;9.174;2022-07-29T14:02:00;5.88;;;5.32;;
13463;SDS011;6804;48.774;9.174;2022-07-29T14:04:28;5.32;;;4.82;;
13463;SDS011;6804;48.774;9.174;2022-07-29T14:06:57;5.97;;;4.65;;
13463;SDS011;6804;48.774;9.174;2022-07-29T14:09:25;6.13;;;4.90;;
13463;SDS011;6804;48.774;9.174;2022-07-29T14:11:54;6.22;;;5.60;;
13463;SDS011;6804;48.774;9.174;2022-07-29T14:14:24;6.88;;;5.40;;
13463;SDS011;6804;48.774;9.174;2022-07-29T14:16:53;5.57;;;5.07;;
13463;SDS011;6804;48.774;9.174;2022-07-29T14:19:21;5.85;;;5.32;;
13463;SDS011;6804;48.774;9.174;2022-07-29T14:21:49;8.05;;;5.78;;
13463;SDS011;6804;48.774;9.174;2022-07-29T14:24:19;5.47;;;4.82;;
13463;SDS011;6804;48.774;9.174;2022-07-29T14:26:52;7.07;;;6.20;;
13463;SDS011;6804;48.774;9.174;2022-07-29T14:29:21;7.05;;;6.15;;
13463;SDS011;6804;48.774;9.174;2022-07-29T14:31:51;5.55;;;5.05;;
13463;SDS011;6804;48.774;9.174;2022-07-29T14:34:21;6.68;;;5.90;;
13463;SDS011;6804;48.774;9.174;2022-07-29T14:36:54;6.55;;;5.95;;
13463;SDS011;6804;48.774;9.174;2022-07-29T14:39:22;6.38;;;5.82;;
13463;SDS011;6804;48.774;9.174;2022-07-29T14:41:52;7.50;;;6.72;;
13463;SDS011;6804;48.774;9.174;2022-07-29T14:44:22;6.07;;;5.45;;
13463;SDS011;6804;48.774;9.174;2022-07-29T14:46:58;8.25;;;6.85;;
13463;SDS011;6804;48.774;9.174;2022-07-29T14:49:28;6.18;;;5.45;;
13463;SDS011;6804;48.774;9.174;2022-07-29T14:51:59;5.80;;;5.20;;
13463;SDS011;6804;48.774;9.174;2022-07-29T14:54:32;7.15;;;5.18;;
13463;SDS011;6804;48.774;9.174;2022-07-29T14:57:04;7.68;;;5.45;;
13463;SDS011;6804;48.774;9.174;2022-07-29T14:59:32;9.00;;;6.05;;
13463;SDS011;6804;48.774;9.174;2022-07-29T15:02:02;7.78;;;5.88;;
13463;SDS011;6804;48.774;9.174;2022-07-29T15:04:30;5.60;;;4.88;;
13463;SDS011;6804;48.774;9.174;2022-07-29T15:07:02;5.90;;;5.28;;
13463;SDS011;6804;48.774;9.174;2022-07-29T15:09:33;7.55;;;6.22;;
13463;SDS011;6804;48.774;9.174;2022-07-29T15:12:04;7.47;;;5.45;;
13463;SDS011;6804;48.774;9.174;2022-07-29T15:14:34;9.38;;;5.53;;
13463;SDS011;6804;48.774;9.174;2022-07-29T15:17:09;6.03;;;5.32;;
13463;SDS011;6804;48.774;9.174;2022-07-29T15:19:39;6.55;;;5.95;;
13463;SDS011;6804;48.774;9.174;2022-07-29T15:22:07;9.02;;;6.70;;
13463;SDS011;6804;48.774;9.174;2022-07-29T15:24:37;7.13;;;5.45;;
13463;SDS011;6804;48.774;9.174;2022-07-29T15:27:09;5.93;;;5.35;;
13463;SDS011;6804;48.774;9.174;2022-07-29T15:29:39;7.80;;;5.63;;
13463;SDS011;6804;48.774;9.174;2022-07-29T15:32:15;7.20;;;6.50;;
13463;SDS011;6804;48.774;9.174;2022-07-29T15:34:43;8.98;;;5.65;;
13463;SDS011;6804;48.774;9.174;2022-07-29T15:37:16;6.80;;;5.80;;
13463;SDS011;6804;48.774;9.174;2022-07-29T15:39:43;7.13;;;5.30;;